createdAt,value
2023-01-09T00:04:50.030Z,46.40
2023-01-09T00:09:56.974Z,47.30
2023-01-09T00:15:04.491Z,46.20
2023-01-09T00:20:14.612Z,48.90
2023-01-09T00:25:23.030Z,50.50
2023-01-09T00:30:31.078Z,48.40
2023-01-09T00:35:38.083Z,50.80
2023-01-09T00:40:44.954Z,50.50
2023-01-09T00:45:52.030Z,48.90
2023-01-09T00:51:01.387Z,52.30
2023-01-09T00:56:13.525Z,50.30
2023-01-09T01:01:21.211Z,49.20
2023-01-09T01:06:45.736Z,49.70
2023-01-09T01:11:52.831Z,51.60
2023-01-09T01:16:59.788Z,52.30
2023-01-09T01:22:06.834Z,51.00
2023-01-09T01:27:13.734Z,53.90
2023-01-09T01:32:20.643Z,53.50
2023-01-09T01:37:28.151Z,52.80
2023-01-09T01:42:35.412Z,55.50
2023-01-09T01:47:48.136Z,58.30
2023-01-09T01:53:01.891Z,62.50
2023-01-09T01:58:11.843Z,63.40
2023-01-09T02:03:23.199Z,60.40
2023-01-09T02:08:30.196Z,55.60
2023-01-09T02:13:40.579Z,53.00
2023-01-09T02:19:02.858Z,54.40
2023-01-09T02:24:36.954Z,57.80
2023-01-09T02:30:11.023Z,51.60
2023-01-09T02:35:33.705Z,55.40
2023-01-09T02:40:46.776Z,56.80
2023-01-09T02:45:54.033Z,54.50
2023-01-09T02:51:11.974Z,56.50
2023-01-09T02:56:36.066Z,55.80
2023-01-09T03:01:52.426Z,55.50
2023-01-09T03:07:05.666Z,52.50
2023-01-09T03:12:18.733Z,52.00
2023-01-09T03:17:30.796Z,45.30
2023-01-09T03:22:37.894Z,46.80
2023-01-09T03:27:44.995Z,43.40
2023-01-09T03:32:52.258Z,45.30
2023-01-09T03:38:00.101Z,41.30
2023-01-09T03:43:07.143Z,42.20
2023-01-09T03:48:14.075Z,41.10
2023-01-09T03:53:21.665Z,42.80
2023-01-09T03:58:29.272Z,43.30
2023-01-09T04:03:36.796Z,44.10
2023-01-09T04:08:46.474Z,42.00
2023-01-09T04:13:53.562Z,43.60
2023-01-09T04:19:00.628Z,42.50
2023-01-09T04:24:08.799Z,42.30
2023-01-09T04:29:15.699Z,44.20
2023-01-09T04:34:25.592Z,45.00
2023-01-09T04:39:32.859Z,44.50
2023-01-09T04:44:39.773Z,42.10
2023-01-09T04:49:46.859Z,42.20
2023-01-09T04:54:54.332Z,43.10
2023-01-09T05:00:01.743Z,39.70
2023-01-09T05:05:11.900Z,41.50
2023-01-09T05:10:19.587Z,46.40
2023-01-09T05:15:28.484Z,46.10
2023-01-09T05:20:35.590Z,40.30
2023-01-09T05:25:42.476Z,40.40
2023-01-09T05:30:49.849Z,42.60
2023-01-09T05:35:56.854Z,44.10
2023-01-09T05:41:03.829Z,42.00
2023-01-09T05:46:11.014Z,40.40
2023-01-09T05:51:18.083Z,40.70
2023-01-09T05:56:25.420Z,40.00
2023-01-09T06:01:32.397Z,43.30
2023-01-09T06:06:39.908Z,42.50
2023-01-09T06:11:46.781Z,43.70
2023-01-09T06:16:53.685Z,41.90
2023-01-09T06:22:00.857Z,41.20
2023-01-09T06:27:07.866Z,39.10
2023-01-09T06:32:14.905Z,38.60
2023-01-09T06:37:21.819Z,42.90
2023-01-09T06:42:28.833Z,43.80
2023-01-09T06:47:35.660Z,40.00
2023-01-09T06:52:42.693Z,37.80
2023-01-09T06:57:49.735Z,40.60
2023-01-09T07:02:56.689Z,42.40
2023-01-09T07:08:04.150Z,38.90
2023-01-09T07:13:11.428Z,40.50
2023-01-09T07:18:18.509Z,42.90
2023-01-09T07:23:25.631Z,42.80
2023-01-09T07:28:32.667Z,44.20
2023-01-09T07:33:40.620Z,44.80
2023-01-09T07:38:47.586Z,43.80
2023-01-09T07:43:54.641Z,41.50
2023-01-09T07:49:01.730Z,43.40
2023-01-09T07:54:09.220Z,42.70
2023-01-09T07:59:17.011Z,55.50
2023-01-09T08:04:24.917Z,46.60
2023-01-09T08:09:31.999Z,46.70
2023-01-09T08:14:38.983Z,48.90
2023-01-09T08:19:45.964Z,50.00
2023-01-09T08:24:53.135Z,50.00
2023-01-09T08:30:00.192Z,50.10
2023-01-09T08:35:08.247Z,48.60
2023-01-09T08:40:17.738Z,48.80
2023-01-09T08:45:42.647Z,47.50
2023-01-09T08:50:49.685Z,44.30
2023-01-09T08:55:56.693Z,48.00
2023-01-09T09:01:05.758Z,48.20
2023-01-09T09:06:16.107Z,48.10
2023-01-09T09:11:46.679Z,47.70
2023-01-09T09:16:57.572Z,44.70
2023-01-09T09:22:04.850Z,51.50
2023-01-09T09:27:11.744Z,45.40
2023-01-09T09:32:19.995Z,48.10
2023-01-09T09:37:27.085Z,46.20
2023-01-09T09:43:04.679Z,57.40
2023-01-09T09:48:24.273Z,70.10
2023-01-09T09:53:37.792Z,58.60
2023-01-09T09:58:49.193Z,56.70
2023-01-09T10:04:01.596Z,50.80
2023-01-09T10:09:15.827Z,52.20
2023-01-09T10:14:24.661Z,62.30
2023-01-09T10:20:01.251Z,85.60
2023-01-09T10:25:22.496Z,68.00
2023-01-09T10:30:38.934Z,60.20
2023-01-09T10:36:11.627Z,88.60
2023-01-09T10:41:25.090Z,73.00
2023-01-09T10:46:44.696Z,55.80
2023-01-09T10:51:53.421Z,57.80
2023-01-09T10:57:07.560Z,68.20
2023-01-09T11:02:28.657Z,56.10
2023-01-09T11:07:40.618Z,41.90
2023-01-09T11:12:48.304Z,37.50
2023-01-09T11:17:55.265Z,38.80
2023-01-09T11:23:02.362Z,88.40
2023-01-09T11:28:11.044Z,100.40
2023-01-09T11:33:24.560Z,79.90
2023-01-09T11:38:33.108Z,78.70
2023-01-09T11:43:41.414Z,88.10
2023-01-09T11:48:58.723Z,167.40
2023-01-09T11:54:22.110Z,42.50
2023-01-09T11:59:31.596Z,30.00
2023-01-09T12:04:44.291Z,24.70
2023-01-09T12:10:03.290Z,23.30
2023-01-09T12:15:25.916Z,20.80
2023-01-09T12:20:45.684Z,21.40
2023-01-09T12:25:58.854Z,25.80
2023-01-09T12:31:22.640Z,27.60
2023-01-09T12:36:39.349Z,20.90
2023-01-09T12:42:05.023Z,20.90
2023-01-09T12:47:45.492Z,18.20
2023-01-09T12:53:05.140Z,16.50
2023-01-09T12:58:21.788Z,17.40
2023-01-09T13:03:35.960Z,16.20
2023-01-09T13:08:46.819Z,14.70
2023-01-09T13:13:59.461Z,13.80
2023-01-09T13:19:16.413Z,11.50
2023-01-09T13:24:28.906Z,8.10
2023-01-09T13:29:38.691Z,8.10
2023-01-09T13:34:48.851Z,8.80
2023-01-09T13:40:02.217Z,7.60
2023-01-09T13:45:27.459Z,8.30
2023-01-09T13:50:34.600Z,9.60
2023-01-09T13:56:07.588Z,9.70
2023-01-09T14:01:50.733Z,9.60
2023-01-09T14:07:27.456Z,12.40
2023-01-09T14:12:41.632Z,10.10
2023-01-09T14:17:50.027Z,10.40
2023-01-09T14:28:29.675Z,10.30
2023-01-09T14:33:37.426Z,10.00
2023-01-09T14:38:50.466Z,9.70
2023-01-09T14:44:03.016Z,9.40
2023-01-09T14:49:23.757Z,9.00
2023-01-09T14:54:35.012Z,9.30
2023-01-09T14:59:55.438Z,10.30
2023-01-09T15:05:06.759Z,8.50
2023-01-09T15:10:21.115Z,8.60
2023-01-09T15:15:58.104Z,8.30
2023-01-09T15:21:30.935Z,7.60
2023-01-09T15:26:39.546Z,8.00
2023-01-09T15:31:48.488Z,7.60
2023-01-09T15:36:56.175Z,7.40
2023-01-09T15:42:21.212Z,6.90
2023-01-09T15:47:29.356Z,7.70
2023-01-09T15:52:39.402Z,7.70
2023-01-09T15:57:54.056Z,8.00
2023-01-09T16:03:11.474Z,8.10
2023-01-09T16:08:26.613Z,7.70
2023-01-09T16:13:36.153Z,8.70
2023-01-09T16:18:54.133Z,8.70
2023-01-09T16:24:03.812Z,9.20
2023-01-09T16:29:29.573Z,9.90
2023-01-09T16:34:44.249Z,11.60
2023-01-09T16:40:30.003Z,12.30
2023-01-09T16:45:39.281Z,10.60
2023-01-09T16:50:47.351Z,9.30
2023-01-09T16:55:56.134Z,9.20
2023-01-09T17:01:03.372Z,8.20
2023-01-09T17:06:15.161Z,10.00
2023-01-09T17:16:31.645Z,10.40
2023-01-09T17:21:42.306Z,12.30
2023-01-09T17:27:09.855Z,13.30
2023-01-09T17:32:18.909Z,13.40
2023-01-09T17:37:26.271Z,21.10
2023-01-09T17:42:33.642Z,19.30
2023-01-09T17:47:41.587Z,15.40
2023-01-09T17:52:49.195Z,16.60
2023-01-09T17:57:56.961Z,15.50
2023-01-09T18:03:07.601Z,13.90
2023-01-09T18:08:16.067Z,13.70
2023-01-09T18:13:23.837Z,13.80
2023-01-09T18:18:31.246Z,10.90
2023-01-09T18:23:54.894Z,13.10
2023-01-09T18:29:16.900Z,12.20
2023-01-09T18:34:24.022Z,13.60
2023-01-09T18:39:31.096Z,11.50
2023-01-09T18:44:38.100Z,11.40
2023-01-09T18:49:45.203Z,10.70
2023-01-09T18:54:52.030Z,10.80
2023-01-09T18:59:59.069Z,12.60
2023-01-09T19:05:08.717Z,14.30
2023-01-09T19:10:18.586Z,14.50
2023-01-09T19:15:31.566Z,15.10
2023-01-09T19:20:40.678Z,18.20
2023-01-09T19:25:48.106Z,17.30
2023-01-09T19:30:58.784Z,18.20
2023-01-09T19:36:06.500Z,22.50
2023-01-09T19:41:17.831Z,23.70
2023-01-09T19:46:27.007Z,28.20
2023-01-09T19:51:34.855Z,36.80
2023-01-09T19:56:48.309Z,55.90
2023-01-09T20:01:57.929Z,68.40
2023-01-09T20:07:06.105Z,78.90
2023-01-09T20:12:12.979Z,83.10
2023-01-09T20:17:20.718Z,47.50
2023-01-09T20:22:29.277Z,30.80
2023-01-09T20:27:36.847Z,20.00
2023-01-09T20:32:44.735Z,16.70
2023-01-09T20:37:52.407Z,17.50
2023-01-09T20:43:00.899Z,17.30
2023-01-09T20:48:09.293Z,22.70
2023-01-09T20:53:16.401Z,37.80
2023-01-09T20:58:24.581Z,40.60
2023-01-09T21:03:31.525Z,35.10
2023-01-09T21:08:41.124Z,37.30
2023-01-09T21:13:49.268Z,43.00
2023-01-09T21:18:56.859Z,42.20
2023-01-09T21:24:04.753Z,39.20
2023-01-09T21:29:15.642Z,37.30
2023-01-09T21:34:22.557Z,33.60
2023-01-09T21:39:29.525Z,34.70
2023-01-09T21:44:54.733Z,33.40
2023-01-09T21:50:01.638Z,35.70
2023-01-09T21:55:10.256Z,49.60
2023-01-09T22:00:18.934Z,42.70
2023-01-09T22:05:27.606Z,40.90
2023-01-09T22:10:34.546Z,41.80
2023-01-09T22:15:42.288Z,42.40
2023-01-09T22:20:49.516Z,43.10
2023-01-09T22:25:57.090Z,72.90
2023-01-09T22:31:04.185Z,46.40
2023-01-09T22:36:12.880Z,46.10
2023-01-09T22:41:19.756Z,54.30
2023-01-09T22:46:27.073Z,52.20
2023-01-09T22:51:36.199Z,53.60
2023-01-09T22:56:43.143Z,52.90
2023-01-09T23:01:50.210Z,61.80
2023-01-09T23:06:57.710Z,54.30
2023-01-09T23:12:06.090Z,51.30
2023-01-09T23:17:13.631Z,47.50
2023-01-09T23:22:20.535Z,50.60
2023-01-09T23:27:27.989Z,51.90
2023-01-09T23:32:35.033Z,47.00
2023-01-09T23:37:42.467Z,45.30
2023-01-09T23:43:07.137Z,44.20
2023-01-09T23:48:16.613Z,38.50
2023-01-09T23:53:24.895Z,33.10
2023-01-09T23:58:31.735Z,33.40
